Flight Track Log - Related Links

Times and Time Zones

All times are in EDT time to prevent confusion due to time zone crossing. See the AAL1624 flight status page for this flight to view local times or setup timezone preferences in your user account.

Time Position Orientation Groundspeed Altitude Reporting Facility
EDT Latitude Longitude Course Direction KTS MPH feet Rate Location/Type
Mon 06:32:37 PM 33.9330 -118.4440 263° West 183 211 1,600  Level FlightAware ADS-B
Mon 06:33:07 PM 33.9260 -118.4840 258° West 228 262 2,200 2,000 Climbing FlightAware ADS-B
Mon 06:33:37 PM 33.9090 -118.5360 249° West 263 303 3,600 2,700 Climbing FlightAware ADS-B
Mon 06:34:07 PM 33.8960 -118.5740 248° West 267 307 4,900 2,533 Climbing FlightAware ADS-B
Mon 06:34:22 PM 33.8870 -118.5900 236° Southwest 265 305 5,500 2,640 Climbing FlightAware ADS-B
Mon 06:34:32 PM 33.8740 -118.5990 210° Southwest 268 308 6,000 2,880 Climbing FlightAware ADS-B
Mon 06:34:47 PM 33.8550 -118.6040 192° South 262 302 6,700 2,400 Climbing FlightAware ADS-B
Mon 06:35:17 PM 33.8210 -118.5850 155° Southeast 283 326 7,800 2,182 Climbing FlightAware ADS-B
Mon 06:35:42 PM 33.8110 -118.5470 108° East 300 345 8,700 2,100 Climbing FlightAware ADS-B
Mon 06:35:57 PM 33.8150 -118.5250 78° East 298 343 9,200 2,400 Climbing FlightAware ADS-B
Mon 06:36:12 PM 33.8300 -118.5040 49° Northeast 299 344 9,900 1,900 Climbing FlightAware ADS-B
Mon 06:36:57 PM 33.8850 -118.4660 30° Northeast 319 367 11,100 1,624 Climbing FlightAware ADS-B
Mon 06:37:37 PM 33.9380 -118.4210 35° Northeast 354 407 12,200 1,875 Climbing FlightAware ADS-B
Mon 06:38:17 PM 33.9770 -118.3560 54° Northeast 373 429 13,600 2,160 Climbing FlightAware ADS-B
Mon 06:38:52 PM 34.0120 -118.2920 57° Northeast 384 442 14,900 2,400 Climbing FlightAware ADS-B
Mon 06:39:42 PM 34.0640 -118.2040 54° Northeast 396 456 17,000 2,363 Climbing FlightAware ADS-B
Mon 06:41:32 PM 34.1800 -118.0090 54° Northeast 407 468 21,200 2,167 Climbing FlightAware ADS-B
Mon 06:42:42 PM 34.2630 -117.8900 50° Northeast 414 476 23,500 1,930 Climbing FlightAware ADS-B
Mon 06:43:27 PM 34.3280 -117.7960 50° Northeast 433 498 24,900 1,765 Climbing FlightAware ADS-B
Mon 06:44:07 PM 34.3800 -117.7190 51° Northeast 438 504 26,000 1,650 Climbing FlightAware ADS-B
Mon 06:44:47 PM 34.4320 -117.6440 50° Northeast 441 507 27,100 1,553 Climbing FlightAware ADS-B
Mon 06:45:32 PM 34.4920 -117.5570 50° Northeast 446 513 28,200 1,400 Climbing FlightAware ADS-B
Mon 06:46:17 PM 34.5500 -117.4730 50° Northeast 450 518 29,200 1,482 Climbing FlightAware ADS-B
Mon 06:46:57 PM 34.6030 -117.3950 50° Northeast 448 516 30,300 1,500 Climbing FlightAware ADS-B
Mon 06:47:37 PM 34.6550 -117.3180 51° Northeast 447 514 31,200 1,200 Climbing FlightAware ADS-B
Mon 06:48:22 PM 34.7120 -117.2350 50° Northeast 451 519 32,000 1,271 Climbing FlightAware ADS-B
Mon 06:49:02 PM 34.7710 -117.1480 50° Northeast 449 517 33,000 1,575 Climbing FlightAware ADS-B
Mon 06:49:42 PM 34.8220 -117.0720 51° Northeast 442 509 34,100 1,482 Climbing FlightAware ADS-B
Mon 06:50:27 PM 34.8790 -116.9880 50° Northeast 436 502 35,100 1,200 Climbing FlightAware ADS-B
Mon 06:51:07 PM 34.9310 -116.9110 51° Northeast 433 498 35,800 975 Climbing FlightAware ADS-B
Mon 06:51:47 PM 34.9800 -116.8370 51° Northeast 432 497 36,400 847 Climbing FlightAware ADS-B
Mon 06:52:32 PM 35.0380 -116.7510 51° Northeast 434 499 37,000 450 Climbing FlightAware ADS-B
Mon 06:53:07 PM 35.0800 -116.6890 50° Northeast 435 501 37,000  Level FlightAware ADS-B
Mon 06:53:57 PM 35.1350 -116.6090 50° Northeast 435 501 37,000  Level FlightAware ADS-B
Mon 06:54:37 PM 35.1790 -116.5450 50° Northeast 435 501 37,000  Level FlightAware ADS-B
Mon 06:55:17 PM 35.2230 -116.4810 50° Northeast 435 501 37,000  Level FlightAware ADS-B
Mon 06:55:57 PM 35.2670 -116.4170 50° Northeast 435 501 37,000  Level FlightAware ADS-B
Mon 06:56:47 PM 35.3220 -116.3360 50° Northeast 435 501 37,000  Level FlightAware ADS-B
Mon 06:57:27 PM 35.4100 -116.1920 53° Northeast 428 493 37,000  Level FlightAware ADS-B
Mon 06:58:07 PM 35.4550 -116.1220 52° Northeast 428 493 37,000  Level FlightAware ADS-B
Mon 06:58:42 PM 35.4990 -116.0560 51° Northeast 429 494 37,000  Level FlightAware ADS-B
Mon 06:59:32 PM 35.5640 -115.9570 51° Northeast 429 494 37,000  Level FlightAware ADS-B
Mon 07:00:32 PM 35.6320 -115.8530 51° Northeast 429 494 37,000  Level FlightAware ADS-B
Mon 07:01:12 PM 35.6740 -115.7890 51° Northeast 429 494 37,000  Level FlightAware ADS-B
Mon 07:01:42 PM 35.7160 -115.6990 60° Northeast 436 502 37,000  Level FlightAware ADS-B
Mon 07:02:22 PM 35.7460 -115.6100 67° East 437 503 37,000  Level FlightAware ADS-B
Mon 07:03:02 PM 35.7780 -115.5150 67° East 438 504 37,000  Level FlightAware ADS-B
Mon 07:03:47 PM 35.8120 -115.4120 68° East 437 503 37,000  Level FlightAware ADS-B
Mon 07:04:27 PM 35.8430 -115.3200 67° East 435 501 37,000  Level FlightAware ADS-B
Mon 07:05:12 PM 35.8760 -115.2190 68° East 432 497 37,000  Level FlightAware ADS-B
Mon 07:05:52 PM 35.9070 -115.1260 68° East 430 495 37,000  Level FlightAware ADS-B
Mon 07:06:32 PM 35.9360 -115.0370 68° East 428 493 37,000  Level FlightAware ADS-B
Mon 07:07:17 PM 35.9710 -114.9320 68° East 428 493 37,000  Level FlightAware ADS-B
Mon 07:07:57 PM 35.9990 -114.8430 69° East 428 493 37,000  Level FlightAware ADS-B
Mon 07:08:42 PM 36.0330 -114.7420 67° East 428 493 37,000  Level FlightAware ADS-B
Mon 07:09:22 PM 36.0620 -114.6510 68° East 428 493 37,000  Level FlightAware ADS-B
Mon 07:10:02 PM 36.0910 -114.5620 68° East 428 493 37,000  Level FlightAware ADS-B
Mon 07:10:47 PM 36.1250 -114.4560 68° East 429 494 37,000  Level FlightAware ADS-B
Mon 07:11:27 PM 36.1550 -114.3650 68° East 430 495 37,000  Level FlightAware ADS-B
Mon 07:12:12 PM 36.1870 -114.2650 68° East 431 496 37,000  Level FlightAware ADS-B
Mon 07:12:52 PM 36.2160 -114.1730 69° East 431 496 37,000  Level FlightAware ADS-B
Mon 07:13:32 PM 36.2460 -114.0790 68° East 431 496 37,000  Level FlightAware ADS-B
Mon 07:14:17 PM 36.2790 -113.9760 68° East 431 496 37,000  Level FlightAware ADS-B
Mon 07:14:57 PM 36.3080 -113.8830 69° East 431 496 37,000  Level FlightAware ADS-B
Mon 07:15:42 PM 36.3400 -113.7840 68° East 430 495 37,000  Level FlightAware ADS-B
Mon 07:16:22 PM 36.3690 -113.6920 69° East 429 494 37,000  Level FlightAware ADS-B
Mon 07:17:02 PM 36.3980 -113.5990 69° East 428 493 37,000  Level FlightAware ADS-B
Mon 07:17:47 PM 36.4300 -113.4960 69° East 426 490 37,000  Level FlightAware ADS-B
Mon 07:18:27 PM 36.4570 -113.4090 69° East 425 489 37,000  Level FlightAware ADS-B
Mon 07:19:07 PM 36.4850 -113.3190 69° East 425 489 37,000  Level FlightAware ADS-B
Mon 07:19:52 PM 36.5160 -113.2190 69° East 425 489 37,000  Level FlightAware ADS-B
Mon 07:20:32 PM 36.5400 -113.1420 69° East 425 489 37,000  Level FlightAware ADS-B
Mon 07:21:12 PM 36.5640 -113.0640 69° East 425 489 37,000  Level FlightAware ADS-B
Mon 07:21:52 PM 36.5880 -112.9860 69° East 425 489 37,000  Level FlightAware ADS-B
Mon 07:22:32 PM 36.6110 -112.9080 70° East 425 489 37,000  Level FlightAware ADS-B
Mon 07:23:22 PM 36.6410 -112.8110 69° East 425 489 37,000  Level FlightAware ADS-B
Mon 07:24:02 PM 36.6650 -112.7330 69° East 425 489 37,000  Level FlightAware ADS-B
Mon 07:24:42 PM 36.6890 -112.6560 69° East 425 489 37,000  Level FlightAware ADS-B
Mon 07:25:22 PM 36.7130 -112.5780 69° East 425 489 37,000  Level FlightAware ADS-B
Mon 07:26:02 PM 36.7370 -112.5000 69° East 425 489 37,000  Level FlightAware ADS-B
Mon 07:26:52 PM 36.8120 -112.2440 70° East 435 501 37,000  Level FlightAware ADS-B
Mon 07:27:32 PM 36.8390 -112.1530 70° East 437 503 37,000  Level FlightAware ADS-B
Mon 07:28:17 PM 36.8680 -112.0590 69° East 437 503 37,000  Level FlightAware ADS-B
Mon 07:28:57 PM 36.8930 -111.9790 69° East 437 503 37,000  Level FlightAware ADS-B
Mon 07:29:37 PM 36.9170 -111.8990 69° East 437 503 37,000  Level FlightAware ADS-B
Mon 07:30:17 PM 36.9420 -111.8180 69° East 437 503 37,000  Level FlightAware ADS-B
Mon 07:30:57 PM 36.9660 -111.7380 69° East 437 503 37,000  Level FlightAware ADS-B
Mon 07:31:47 PM 36.9970 -111.6380 69° East 437 503 37,000  Level FlightAware ADS-B
Mon 07:32:27 PM 37.0220 -111.5570 69° East 437 503 37,000  Level FlightAware ADS-B
Mon 07:33:07 PM 37.0460 -111.4770 69° East 437 503 37,000  Level FlightAware ADS-B
Mon 07:33:47 PM 37.0710 -111.3970 69° East 437 503 37,000  Level FlightAware ADS-B
Mon 07:34:27 PM 37.0960 -111.3160 69° East 437 503 37,000  Level FlightAware ADS-B
Mon 07:35:17 PM 37.1270 -111.2150 69° East 437 503 37,000  Level FlightAware ADS-B
Mon 07:35:57 PM 37.1510 -111.1350 69° East 437 503 37,000  Level FlightAware ADS-B
Mon 07:36:37 PM 37.1760 -111.0540 69° East 437 503 37,000  Level FlightAware ADS-B
Mon 07:37:17 PM 37.2000 -110.9740 69° East 437 503 37,000  Level FlightAware ADS-B
Mon 07:38:05 PM 37.2686 -110.6700 69° East 434 499 37,000  Level Denver Center
Mon 07:39:06 PM 37.3167 -110.4989 71° East 436 502 37,000  Level Denver Center
Mon 07:40:08 PM 37.3567 -110.3544 71° East 439 505 37,000  Level Denver Center
Mon 07:41:10 PM 37.3978 -110.2097 70° East 440 506 37,000  Level Denver Center
Mon 07:42:12 PM 37.4419 -110.0500 71° East 440 506 37,000  Level Denver Center
Mon 07:43:13 PM 37.4794 -109.9122 71° East 437 503 37,000  Level Denver Center
Mon 07:44:15 PM 37.5169 -109.7742 71° East 435 501 37,000  Level Denver Center
Mon 07:45:17 PM 37.5606 -109.6133 71° East 433 498 37,000  Level Denver Center
Mon 07:46:18 PM 37.5992 -109.4739 71° East 437 503 37,000  Level Denver Center
Mon 07:47:20 PM 37.6417 -109.3114 72° East 436 502 37,000  Level Denver Center
Mon 07:48:22 PM 37.6800 -109.1703 71° East 441 507 37,000  Level Denver Center
Mon 07:49:24 PM 37.7233 -109.0064 71° East 439 505 37,000  Level Denver Center
Mon 07:50:25 PM 37.7600 -108.8647 72° East 440 506 37,000  Level Denver Center
Mon 07:51:27 PM 37.7975 -108.7233 71° East 442 509 37,000  Level Denver Center
Mon 07:52:29 PM 37.8400 -108.5611 72° East 436 502 37,000  Level Denver Center
Mon 07:53:31 PM 37.8761 -108.4192 72° East 441 507 37,000  Level Denver Center
Mon 07:58:47 PM 38.0770 -107.6300 72° East 445 512 37,000  Level FlightAware ADS-B
Mon 07:59:27 PM 38.1020 -107.5320 72° East 443 510 37,000  Level FlightAware ADS-B
Mon 08:00:07 PM 38.1250 -107.4380 73° East 442 509 37,000  Level FlightAware ADS-B
Mon 08:00:52 PM 38.1570 -107.3100 72° East 440 506 37,000  Level FlightAware ADS-B
Mon 08:02:32 PM 38.2150 -107.0730 73° East 439 505 37,000  Level FlightAware ADS-B
Mon 08:03:49 PM 38.2655 -106.8670 73° East 447 514 37,000  Level FlightAware ADS-B
Mon 08:04:20 PM 38.2839 -106.7910 73° East 446 513 37,000  Level FlightAware ADS-B
Mon 08:04:53 PM 38.3041 -106.7070 73° East 448 516 37,000  Level FlightAware ADS-B
Mon 08:05:24 PM 38.3225 -106.6310 73° East 449 517 37,000  Level FlightAware ADS-B
Mon 08:05:54 PM 38.3409 -106.5540 73° East 450 518 37,000  Level FlightAware ADS-B
Mon 08:06:25 PM 38.3596 -106.4750 73° East 451 519 37,000  Level FlightAware ADS-B
Mon 08:06:56 PM 38.3780 -106.3970 73° East 449 517 37,000  Level FlightAware ADS-B
Mon 08:07:27 PM 38.3950 -106.3260 73° East 448 516 37,000  Level FlightAware ADS-B
Mon 08:07:32 PM 38.4001 -106.3050 73° East 448 516 37,000  Level FlightAware ADS-B
Mon 08:08:03 PM 38.4185 -106.2280 73° East 449 517 37,000  Level FlightAware ADS-B
Mon 08:08:35 PM 38.4375 -106.1470 73° East 449 517 37,000  Level FlightAware ADS-B
Mon 08:09:05 PM 38.4555 -106.0710 73° East 450 518 37,000  Level FlightAware ADS-B
Mon 08:09:38 PM 38.4750 -105.9870 73° East 449 517 37,000  Level FlightAware ADS-B
Mon 08:10:09 PM 38.4932 -105.9090 73° East 451 519 37,000  Level FlightAware ADS-B
Mon 08:10:39 PM 38.5110 -105.8330 73° East 448 516 37,000  Level FlightAware ADS-B
Mon 08:11:10 PM 38.5290 -105.7550 74° East 449 517 37,000  Level FlightAware ADS-B
Mon 08:11:40 PM 38.5469 -105.6770 74° East 448 516 37,000  Level FlightAware ADS-B
Mon 08:12:10 PM 38.5644 -105.6020 73° East 447 514 37,000  Level FlightAware ADS-B
Mon 08:12:41 PM 38.5820 -105.5250 74° East 446 513 37,000  Level FlightAware ADS-B
Mon 08:13:11 PM 38.5993 -105.4490 74° East 446 513 37,000  Level FlightAware ADS-B
Mon 08:13:41 PM 38.6166 -105.3730 74° East 445 512 37,000  Level FlightAware ADS-B
Mon 08:14:11 PM 38.6342 -105.2950 74° East 443 510 37,000  Level FlightAware ADS-B
Mon 08:14:41 PM 38.6512 -105.2200 74° East 443 510 37,000  Level FlightAware ADS-B
Mon 08:15:12 PM 38.6683 -105.1450 74° East 445 512 37,000  Level FlightAware ADS-B
Mon 08:15:42 PM 38.6854 -105.0690 74° East 443 510 37,000  Level FlightAware ADS-B
Mon 08:16:12 PM 38.7025 -104.9920 74° East 446 513 37,000  Level FlightAware ADS-B
Mon 08:16:42 PM 38.7198 -104.9150 74° East 448 516 37,000  Level FlightAware ADS-B
Mon 08:17:12 PM 38.7370 -104.8380 74° East 448 516 37,000  Level FlightAware ADS-B
Mon 08:17:43 PM 38.7542 -104.7610 74° East 450 518 37,000  Level FlightAware ADS-B
Mon 08:18:14 PM 38.7715 -104.6820 74° East 449 517 37,000  Level FlightAware ADS-B
Mon 08:18:46 PM 38.7894 -104.6010 74° East 450 518 37,000  Level FlightAware ADS-B
Mon 08:19:17 PM 38.8074 -104.5190 74° East 449 517 37,000  Level FlightAware ADS-B
Mon 08:19:52 PM 38.8265 -104.4320 74° East 447 514 37,000  Level FlightAware ADS-B
Mon 08:20:23 PM 38.8436 -104.3520 75° East 447 514 37,000  Level FlightAware ADS-B
Mon 08:20:53 PM 38.8605 -104.2750 74° East 446 513 37,000 98 Level FlightAware ADS-B
Mon 08:21:24 PM 38.8774 -104.1980 74° East 452 520 37,100 787 Climbing FlightAware ADS-B
Mon 08:21:54 PM 38.8941 -104.1200 75° East 448 516 37,800 1,180 Climbing FlightAware ADS-B
Mon 08:22:25 PM 38.9112 -104.0400 75° East 443 510 38,300 984 Climbing FlightAware ADS-B
Mon 08:22:55 PM 38.9274 -103.9640 75° East 439 505 38,800 689 Climbing FlightAware ADS-B
Mon 08:23:26 PM 38.9435 -103.8880 75° East 439 505 39,000 188 Climbing FlightAware ADS-B
Mon 08:23:59 PM 38.9610 -103.8060 75° East 438 504 39,000  Level FlightAware ADS-B
Mon 08:24:29 PM 38.9773 -103.7300 75° East 437 503 39,000  Level FlightAware ADS-B
Mon 08:25:00 PM 38.9940 -103.6510 75° East 438 504 39,000  Level FlightAware ADS-B
Mon 08:25:31 PM 39.0102 -103.5740 75° East 439 505 39,000  Level FlightAware ADS-B
Mon 08:26:01 PM 39.0260 -103.4980 75° East 439 505 39,000  Level FlightAware ADS-B
Mon 08:26:32 PM 39.0419 -103.4220 75° East 440 506 39,000  Level FlightAware ADS-B
Mon 08:27:02 PM 39.0578 -103.3450 75° East 441 507 39,000  Level FlightAware ADS-B
Mon 08:27:33 PM 39.0738 -103.2680 75° East 441 507 39,000  Level FlightAware ADS-B
Mon 08:28:04 PM 39.0903 -103.1890 75° East 442 509 39,000  Level FlightAware ADS-B
Mon 08:28:34 PM 39.1059 -103.1130 75° East 441 507 39,000  Level FlightAware ADS-B
Mon 08:29:04 PM 39.1215 -103.0370 75° East 441 507 39,000  Level FlightAware ADS-B
Mon 08:29:34 PM 39.1370 -102.9610 75° East 440 506 39,000  Level FlightAware ADS-B
Mon 08:30:05 PM 39.1528 -102.8830 75° East 441 507 39,000  Level FlightAware ADS-B
Mon 08:30:36 PM 39.1690 -102.8030 75° East 441 507 39,000  Level FlightAware ADS-B
Mon 08:31:06 PM 39.1846 -102.7260 75° East 441 507 39,000  Level FlightAware ADS-B
Mon 08:31:36 PM 39.2000 -102.6500 75° East 442 509 39,000  Level FlightAware ADS-B
Mon 08:32:07 PM 39.2153 -102.5730 76° East 442 509 39,000  Level FlightAware ADS-B
Mon 08:32:38 PM 39.2314 -102.4930 75° East 443 510 39,000  Level FlightAware ADS-B
Mon 08:33:09 PM 39.2471 -102.4140 76° East 444 511 39,000  Level FlightAware ADS-B
Mon 08:33:40 PM 39.2630 -102.3330 76° East 445 512 39,000  Level FlightAware ADS-B
Mon 08:34:11 PM 39.2787 -102.2540 76° East 446 513 39,000  Level FlightAware ADS-B
Mon 08:34:43 PM 39.2948 -102.1720 76° East 447 514 39,000  Level FlightAware ADS-B
Mon 08:35:14 PM 39.3105 -102.0920 76° East 447 514 39,000  Level FlightAware ADS-B
Mon 08:35:45 PM 39.3259 -102.0130 76° East 448 516 39,000  Level FlightAware ADS-B
Mon 08:36:15 PM 39.3411 -101.9350 76° East 449 517 39,000  Level FlightAware ADS-B
Mon 08:36:45 PM 39.3565 -101.8560 76° East 451 519 39,000  Level FlightAware ADS-B
Mon 08:37:27 PM 39.3773 -101.7470 76° East 451 519 39,000  Level FlightAware ADS-B
Mon 08:37:40 PM 39.3835 -101.7130 77° East 444 511 39,000  Level FlightAware ADS-B
Mon 08:37:57 PM 39.3891 -101.6680 81° East 447 514 39,000  Level FlightAware ADS-B
Mon 08:38:28 PM 39.3951 -101.5870 84° East 449 517 39,000  Level FlightAware ADS-B
Mon 08:38:59 PM 39.4012 -101.5050 84° East 450 518 39,000  Level FlightAware ADS-B
Mon 08:39:31 PM 39.4077 -101.4180 84° East 449 517 39,000  Level FlightAware ADS-B
Mon 08:40:02 PM 39.4135 -101.3370 85° East 449 517 39,000  Level FlightAware ADS-B
Mon 08:40:32 PM 39.4192 -101.2560 85° East 448 516 39,000  Level FlightAware ADS-B
Mon 08:41:03 PM 39.4248 -101.1740 85° East 448 516 39,000  Level FlightAware ADS-B
Mon 08:41:34 PM 39.4307 -101.0900 85° East 450 518 39,000  Level FlightAware ADS-B
Mon 08:42:05 PM 39.4362 -101.0090 85° East 453 521 39,000  Level FlightAware ADS-B
Mon 08:42:20 PM 39.4381 -100.9858 85° East 445 512 39,000  Level Denver Center
Mon 08:43:22 PM 39.4475 -100.8297 85° East 452 520 39,000  Level Denver Center
Mon 08:44:24 PM 39.4594 -100.6506 85° East 451 519 39,000  Level Denver Center
Mon 08:45:25 PM 39.4678 -100.5228 85° East 450 518 39,000  Level Denver Center
Mon 08:46:27 PM 39.4811 -100.3167 85° East 451 519 39,000  Level Denver Center
Mon 08:47:29 PM 39.4900 -100.1600 86° East 456 525 39,000  Level Denver Center
Mon 08:48:31 PM 39.5014 -99.9769 85° East 459 528 39,000  Level Denver Center
Mon 08:49:33 PM 39.5194 -99.8172 82° East 458 527 39,000  Level Denver Center
Mon 08:50:34 PM 39.5364 -99.6544 82° East 457 526 39,000  Level Denver Center
Mon 08:51:36 PM 39.5536 -99.4956 82° East 450 518 39,000  Level Denver Center
Mon 08:52:38 PM 39.5708 -99.3347 82° East 450 518 39,000  Level Denver Center
Mon 08:53:40 PM 39.5875 -99.1761 82° East 447 514 39,000  Level Denver Center
Mon 08:54:42 PM 39.6069 -98.9792 83° East 458 527 39,000  Level Denver Center
Mon 08:55:43 PM 39.6236 -98.8178 82° East 454 522 39,000  Level Denver Center
Mon 08:56:16 PM 39.6300 -98.7550 82° East 454 522 39,000  Level Minneapolis Center
Mon 08:57:18 PM 39.6483 -98.5572 83° East 460 529 39,000  Level Minneapolis Center
Mon 08:58:20 PM 39.6650 -98.3933 82° East 460 529 39,000  Level Minneapolis Center
Mon 08:59:22 PM 39.6806 -98.2278 83° East 461 531 39,000  Level Minneapolis Center
Mon 09:00:24 PM 39.6961 -98.0614 83° East 464 534 39,000  Level Minneapolis Center
Mon 09:01:26 PM 39.7103 -97.8961 84° East 463 533 39,000  Level Minneapolis Center
Mon 09:02:28 PM 39.7281 -97.6981 83° East 462 532 39,000  Level Minneapolis Center
Mon 09:03:30 PM 39.7436 -97.5347 83° East 459 528 39,000  Level Minneapolis Center
Mon 09:04:32 PM 39.7575 -97.3703 84° East 459 528 39,000  Level Minneapolis Center
Mon 09:10:27 PM 39.8280 -96.5210 84° East 456 525 39,000  Level FlightAware ADS-B
Mon 09:11:12 PM 39.8380 -96.4020 84° East 456 525 39,000  Level FlightAware ADS-B
Mon 09:11:52 PM 39.8440 -96.3260 84° East 456 525 39,000  Level FlightAware ADS-B
Mon 09:12:47 PM 39.8570 -96.1560 84° East 457 526 39,000  Level FlightAware ADS-B
Mon 09:13:32 PM 39.8660 -96.0330 85° East 458 527 39,000  Level FlightAware ADS-B
Mon 09:14:07 PM 39.8720 -95.9490 85° East 458 527 39,000  Level FlightAware ADS-B
Mon 09:14:52 PM 39.8920 -95.6760 84° East 460 529 39,000  Level FlightAware ADS-B
Mon 09:15:32 PM 39.8920 -95.6810 270° West 460 529 39,000  Level FlightAware ADS-B
Mon 09:16:17 PM 39.8980 -95.5910 85° East 460 529 39,000  Level FlightAware ADS-B
Mon 09:17:02 PM 39.9070 -95.4610 85° East 467 537 39,000  Level FlightAware ADS-B
Mon 09:17:42 PM 39.9260 -95.1930 85° East 468 539 39,000  Level FlightAware ADS-B
Mon 09:18:17 PM 39.9320 -95.1040 85° East 468 539 39,000  Level FlightAware ADS-B
Mon 09:19:07 PM 39.9420 -94.9560 85° East 466 536 39,000  Level FlightAware ADS-B
Mon 09:19:47 PM 39.9480 -94.8490 86° East 465 535 39,000  Level FlightAware ADS-B
Mon 09:20:27 PM 39.9560 -94.7310 85° East 462 532 39,000  Level FlightAware ADS-B
Mon 09:21:12 PM 39.9630 -94.6140 85° East 458 527 39,000  Level FlightAware ADS-B
Mon 09:21:52 PM 39.9700 -94.5020 85° East 457 526 39,000  Level FlightAware ADS-B
Mon 09:22:37 PM 39.9780 -94.3740 85° East 458 527 39,000  Level FlightAware ADS-B
Mon 09:23:17 PM 39.9850 -94.2650 85° East 462 532 39,000  Level FlightAware ADS-B
Mon 09:23:57 PM 39.9910 -94.1530 86° East 465 535 39,000  Level FlightAware ADS-B
Mon 09:24:42 PM 39.9980 -94.0310 86° East 465 535 39,000  Level FlightAware ADS-B
Mon 09:25:22 PM 40.0080 -93.9200 83° East 465 535 39,000  Level FlightAware ADS-B
Mon 09:26:07 PM 40.0210 -93.7900 83° East 467 537 39,000  Level FlightAware ADS-B
Mon 09:26:47 PM 40.0320 -93.6810 82° East 468 539 39,000  Level FlightAware ADS-B
Mon 09:27:32 PM 40.0440 -93.5570 83° East 469 540 39,000  Level FlightAware ADS-B
Mon 09:28:12 PM 40.0630 -93.4480 77° East 467 537 39,000  Level FlightAware ADS-B
Mon 09:28:52 PM 40.0890 -93.3440 72° East 468 539 39,000  Level FlightAware ADS-B
Mon 09:29:37 PM 40.1200 -93.2170 72° East 466 536 39,000  Level FlightAware ADS-B
Mon 09:30:17 PM 40.1470 -93.1100 72° East 465 535 39,000  Level FlightAware ADS-B
Mon 09:30:57 PM 40.1720 -93.0070 72° East 462 532 39,000  Level FlightAware ADS-B
Mon 09:31:42 PM 40.2020 -92.8880 72° East 460 529 39,000  Level FlightAware ADS-B
Mon 09:32:12 PM 40.2210 -92.8110 72° East 459 528 39,000  Level FlightAware ADS-B
Mon 09:33:02 PM 40.2530 -92.6760 73° East 458 527 39,000  Level FlightAware ADS-B
Mon 09:33:47 PM 40.2800 -92.5650 72° East 458 527 39,000  Level FlightAware ADS-B
Mon 09:34:27 PM 40.3070 -92.4530 72° East 459 528 39,000 -282 Level FlightAware ADS-B
Mon 09:35:12 PM 40.3360 -92.3340 72° East 459 528 38,600 -706 Descending FlightAware ADS-B
Mon 09:35:52 PM 40.3610 -92.2250 73° East 460 529 38,000 -918 Descending FlightAware ADS-B
Mon 09:36:37 PM 40.3910 -92.1030 72° East 470 541 37,300 -988 Descending FlightAware ADS-B
Mon 09:37:17 PM 40.4150 -91.9970 73° East 474 545 36,600 -1,059 Descending FlightAware ADS-B
Mon 09:38:02 PM 40.4430 -91.8780 73° East 479 551 35,800 -1,129 Descending FlightAware ADS-B
Mon 09:38:42 PM 40.4710 -91.7590 73° East 484 557 35,000 -1,200 Descending FlightAware ADS-B
Mon 09:39:22 PM 40.4980 -91.6460 73° East 493 567 34,200 -1,129 Descending FlightAware ADS-B
Mon 09:40:07 PM 40.5260 -91.5230 73° East 497 572 33,400 -847 Descending FlightAware ADS-B
Mon 09:40:47 PM 40.5560 -91.3990 72° East 495 570 33,000 -300 Descending FlightAware ADS-B
Mon 09:41:27 PM 40.5920 -91.2910 66° East 493 567 33,000  Level FlightAware ADS-B
Mon 09:42:12 PM 40.6340 -91.1690 66° East 493 567 33,000  Level FlightAware ADS-B
Mon 09:42:52 PM 40.6710 -91.0600 66° East 492 566 33,000  Level FlightAware ADS-B
Mon 09:43:37 PM 40.7130 -90.9360 66° East 493 567 33,000  Level FlightAware ADS-B
Mon 09:44:17 PM 40.7500 -90.8260 66° East 494 568 33,000  Level FlightAware ADS-B
Mon 09:45:02 PM 40.7920 -90.7030 66° East 494 568 33,000  Level FlightAware ADS-B
Mon 09:45:42 PM 40.8280 -90.5970 66° East 493 567 33,000  Level FlightAware ADS-B
Mon 09:46:22 PM 40.8640 -90.4890 66° East 494 568 33,000 -776 Level FlightAware ADS-B
Mon 09:47:07 PM 40.9080 -90.3570 66° East 494 568 31,900 -1,624 Descending FlightAware ADS-B
Mon 09:47:47 PM 40.9430 -90.2500 67° East 486 559 30,700 -1,875 Descending FlightAware ADS-B
Mon 09:48:27 PM 40.9800 -90.1390 66° East 479 551 29,400 -1,976 Descending FlightAware ADS-B
Mon 09:49:12 PM 41.0180 -90.0210 67° East 470 541 27,900 -1,976 Descending FlightAware ADS-B
Mon 09:49:52 PM 41.0530 -89.9150 66° East 464 534 26,600 -1,906 Descending FlightAware ADS-B
Mon 09:50:37 PM 41.0920 -89.7980 66° East 457 526 25,200 -1,906 Descending FlightAware ADS-B
Mon 09:51:17 PM 41.1230 -89.7010 67° East 447 514 23,900 -1,950 Descending FlightAware ADS-B
Mon 09:51:57 PM 41.1550 -89.6020 67° East 438 504 22,600 -2,047 Descending FlightAware ADS-B
Mon 09:52:42 PM 41.1970 -89.4950 62° Northeast 429 494 21,000 -2,047 Descending FlightAware ADS-B
Mon 09:53:22 PM 41.2350 -89.4010 62° Northeast 419 482 19,700 -1,976 Descending FlightAware ADS-B
Mon 09:54:07 PM 41.2750 -89.3040 61° Northeast 409 471 18,200 -2,047 Descending FlightAware ADS-B
Mon 09:54:47 PM 41.3120 -89.2110 62° Northeast 402 463 16,800 -1,950 Descending FlightAware ADS-B
Mon 09:55:27 PM 41.3460 -89.1260 62° Northeast 396 456 15,600 -1,765 Descending FlightAware ADS-B
Mon 09:56:12 PM 41.3810 -89.0380 62° Northeast 392 451 14,300 -1,835 Descending FlightAware ADS-B
Mon 09:56:52 PM 41.4170 -88.9470 62° Northeast 386 444 13,000 -1,835 Descending FlightAware ADS-B
Mon 09:57:37 PM 41.4540 -88.8560 61° Northeast 381 438 11,700 -1,341 Descending FlightAware ADS-B
Mon 09:58:17 PM 41.4860 -88.7750 62° Northeast 372 428 11,100 -450 Descending FlightAware ADS-B
Mon 09:58:57 PM 41.5190 -88.6910 62° Northeast 369 425 11,100  Level FlightAware ADS-B
Mon 09:59:42 PM 41.5550 -88.5990 62° Northeast 370 426 11,100 -71 Level FlightAware ADS-B
Mon 10:00:22 PM 41.5860 -88.5220 62° Northeast 371 427 11,000 -450 Descending FlightAware ADS-B
Mon 10:01:02 PM 41.6220 -88.4450 58° Northeast 371 427 10,500 -635 Descending FlightAware ADS-B
Mon 10:01:47 PM 41.6710 -88.3610 52° Northeast 365 420 10,100 -282 Descending FlightAware ADS-B
Mon 10:02:27 PM 41.7110 -88.2920 52° Northeast 347 399 10,100 -257 Level FlightAware ADS-B
Mon 10:02:57 PM 41.7400 -88.2420 52° Northeast 326 375 9,800 -800 Descending FlightAware ADS-B
Mon 10:03:27 PM 41.7660 -88.1980 52° Northeast 317 365 9,300 -1,200 Descending FlightAware ADS-B
Mon 10:03:52 PM 41.7900 -88.1560 53° Northeast 312 359 8,700 -1,309 Descending FlightAware ADS-B
Mon 10:04:22 PM 41.8150 -88.1130 52° Northeast 308 354 8,100 -1,309 Descending FlightAware ADS-B
Mon 10:04:47 PM 41.8420 -88.0790 43° Northeast 301 346 7,500 -1,200 Descending FlightAware ADS-B
Mon 10:05:02 PM 41.8570 -88.0650 35° Northeast 293 337 7,300 -600 Descending FlightAware ADS-B
Mon 10:05:17 PM 41.8770 -88.0600 11° North 284 327 7,200 -267 Descending FlightAware ADS-B
Mon 10:05:47 PM 41.9170 -88.0660 354° North 275 316 7,100 -109 Descending FlightAware ADS-B
Mon 10:06:12 PM 41.9460 -88.0700 354° North 252 290 7,100  Level FlightAware ADS-B
Mon 10:06:42 PM 41.9800 -88.0760 353° North 241 277 7,100 -400 Level FlightAware ADS-B
Mon 10:06:57 PM 41.9950 -88.0860 334° Northwest 228 262 6,800 -1,050 Descending FlightAware ADS-B
Mon 10:07:22 PM 42.0160 -88.1060 325° Northwest 222 255 6,400 -1,418 Descending FlightAware ADS-B
Mon 10:07:52 PM 42.0410 -88.1300 325° Northwest 234 269 5,500 -1,733 Descending FlightAware ADS-B
Mon 10:08:07 PM 42.0550 -88.1420 328° Northwest 241 277 5,100 -1,440 Descending FlightAware ADS-B
Mon 10:08:17 PM 42.0650 -88.1460 343° North 249 287 4,900 -1,200 Descending FlightAware ADS-B
Mon 10:08:47 PM 42.0970 -88.1260 25° Northeast 236 272 4,300 -1,200 Descending FlightAware ADS-B
Mon 10:09:02 PM 42.1080 -88.1120 43° Northeast 232 267 4,000 -1,400 Descending FlightAware ADS-B
Mon 10:09:17 PM 42.1130 -88.0930 70° East 218 251 3,600 -1,350 Descending FlightAware ADS-B
Mon 10:09:42 PM 42.1050 -88.0640 110° East 182 209 3,100 -1,200 Descending FlightAware ADS-B
Mon 10:10:12 PM 42.0870 -88.0420 138° Southeast 170 196 2,500 -800 Descending FlightAware ADS-B
Mon 10:10:27 PM 42.0780 -88.0320 140° Southeast 173 199 2,500  Level FlightAware ADS-B
Mon 10:10:52 PM 42.0630 -88.0150 140° Southeast 172 198 2,500 -150 Level FlightAware ADS-B
Mon 10:11:07 PM 42.0540 -88.0050 140° Southeast 158 182 2,400 -667 Descending FlightAware ADS-B
Mon 10:11:37 PM 42.0390 -87.9880 140° Southeast 136 157 2,000 -764 Descending FlightAware ADS-B
Mon 10:12:02 PM 42.0260 -87.9740 141° Southeast 135 155 1,700 -655 Descending FlightAware ADS-B
Mon 10:12:32 PM 42.0130 -87.9590 139° Southeast 136 157 1,400 -720 Descending FlightAware ADS-B
Mon 10:12:52 PM 42.0030 -87.9470 138° Southeast 141 162 1,100 -764 Descending FlightAware ADS-B
Mon 10:13:27 PM 41.9850 -87.9280 142° Southeast 139 160 700 -686 Descending FlightAware ADS-B

Login

Don't have an account? Register now (free) for customized features, flight alerts, and more!